createdAt,value
2023-05-10T04:00:12.881Z,57.83
2023-05-10T04:01:13.046Z,57.73
2023-05-10T04:02:13.139Z,57.63
2023-05-10T04:03:13.255Z,57.63
2023-05-10T04:04:13.500Z,57.63
2023-05-10T04:05:14.168Z,57.50
2023-05-10T04:06:14.518Z,57.40
2023-05-10T04:07:13.731Z,57.30
2023-05-10T04:08:13.864Z,57.30
2023-05-10T04:09:13.962Z,57.20
2023-05-10T04:10:14.323Z,57.10
2023-05-10T04:11:15.205Z,57.00
2023-05-10T04:12:15.308Z,57.00
2023-05-10T04:13:14.530Z,57.00
2023-05-10T04:14:15.535Z,56.98
2023-05-10T04:15:14.688Z,56.87
2023-05-10T04:16:14.842Z,56.77
2023-05-10T04:17:14.986Z,56.67
2023-05-10T04:18:15.046Z,56.67
2023-05-10T04:19:15.185Z,56.57
2023-05-10T04:20:15.539Z,56.57
2023-05-10T04:21:15.518Z,56.48
2023-05-10T04:22:15.653Z,56.48
2023-05-10T04:23:15.796Z,56.48
2023-05-10T04:24:15.962Z,56.48
2023-05-10T04:25:16.086Z,56.48
2023-05-10T04:26:16.220Z,56.37
2023-05-10T04:27:16.349Z,56.27
2023-05-10T04:28:16.441Z,56.37
2023-05-10T04:29:16.601Z,56.27
2023-05-10T04:30:16.981Z,56.27
2023-05-10T04:31:17.022Z,56.27
2023-05-10T04:32:16.978Z,56.27
2023-05-10T04:33:17.108Z,56.27
2023-05-10T04:34:17.314Z,56.17
2023-05-10T04:35:17.516Z,56.17
2023-05-10T04:36:17.542Z,56.17
2023-05-10T04:37:17.642Z,56.17
2023-05-10T04:38:17.770Z,56.07
2023-05-10T04:39:17.891Z,56.07
2023-05-10T04:40:18.283Z,56.07
2023-05-10T04:41:18.161Z,56.07
2023-05-10T04:42:18.278Z,56.07
2023-05-10T04:43:18.442Z,56.07
2023-05-10T04:44:18.584Z,55.98
2023-05-10T04:45:18.673Z,56.07
2023-05-10T04:46:18.845Z,55.98
2023-05-10T04:47:18.967Z,55.98
2023-05-10T04:48:19.131Z,55.98
2023-05-10T04:49:20.266Z,55.98
2023-05-10T04:50:19.552Z,55.87
2023-05-10T04:51:19.577Z,55.98
2023-05-10T04:52:19.670Z,55.98
2023-05-10T04:53:20.548Z,55.98
2023-05-10T04:54:19.905Z,55.85
2023-05-10T04:55:20.020Z,55.98
2023-05-10T04:56:20.129Z,55.87
2023-05-10T04:57:20.273Z,55.87
2023-05-10T04:58:20.393Z,55.87
2023-05-10T04:59:20.559Z,55.87
2023-05-10T05:00:20.691Z,55.77
2023-05-10T05:01:20.906Z,55.87
2023-05-10T05:02:21.016Z,55.74
2023-05-10T05:03:21.146Z,55.85
2023-05-10T05:04:21.209Z,55.87
2023-05-10T05:05:21.354Z,55.77
2023-05-10T05:06:21.473Z,55.74
2023-05-10T05:07:21.610Z,55.87
2023-05-10T05:08:21.726Z,55.77
2023-05-10T05:09:21.858Z,55.77
2023-05-10T05:10:21.969Z,55.77
2023-05-10T05:11:22.117Z,55.77
2023-05-10T05:12:22.219Z,55.74
2023-05-10T05:13:22.437Z,55.74
2023-05-10T05:14:22.541Z,55.74
2023-05-10T05:15:22.689Z,55.74
2023-05-10T05:16:22.952Z,55.74
2023-05-10T05:17:22.981Z,55.74
2023-05-10T05:18:23.792Z,55.74
2023-05-10T05:19:23.229Z,55.74
2023-05-10T05:20:23.394Z,55.74
2023-05-10T05:21:23.547Z,55.67
2023-05-10T05:22:23.686Z,55.65
2023-05-10T05:23:23.805Z,55.74
2023-05-10T05:24:23.927Z,55.65
2023-05-10T05:25:24.093Z,55.65
2023-05-10T05:26:24.212Z,55.55
2023-05-10T05:27:25.060Z,55.65
2023-05-10T05:28:24.494Z,55.65
2023-05-10T05:29:25.288Z,55.65
2023-05-10T05:30:24.780Z,55.74
2023-05-10T05:31:25.893Z,55.65
2023-05-10T05:32:25.077Z,55.65
2023-05-10T05:33:25.185Z,55.65
2023-05-10T05:35:40.877Z,55.65
2023-05-10T05:36:41.081Z,55.65
2023-05-10T05:37:41.082Z,55.65
2023-05-10T05:38:41.219Z,55.55
2023-05-10T05:39:41.492Z,55.55
2023-05-10T05:40:41.651Z,55.44
2023-05-10T05:41:41.703Z,55.55
2023-05-10T05:42:41.770Z,55.55
2023-05-10T05:43:42.677Z,55.55
2023-05-10T05:44:42.109Z,55.55
2023-05-10T05:45:42.178Z,55.55
2023-05-10T05:46:42.519Z,55.55
2023-05-10T05:47:42.684Z,55.44
2023-05-10T05:48:42.565Z,55.35
2023-05-10T05:49:42.736Z,55.44
2023-05-10T05:50:43.715Z,55.35
2023-05-10T05:51:43.003Z,55.44
2023-05-10T05:52:43.165Z,55.44
2023-05-10T05:53:43.377Z,55.44
2023-05-10T05:54:43.450Z,55.35
2023-05-10T05:55:43.596Z,55.35
2023-05-10T05:56:43.764Z,55.44
2023-05-10T05:57:44.020Z,55.44
2023-05-10T05:58:44.137Z,55.44
2023-05-10T05:59:44.144Z,55.44
2023-05-10T06:00:45.398Z,55.44
2023-05-10T06:01:44.608Z,55.35
2023-05-10T06:02:44.746Z,55.44
2023-05-10T06:03:44.723Z,55.44
2023-05-10T06:04:45.080Z,55.44
2023-05-10T06:05:44.878Z,55.44
2023-05-10T06:06:45.057Z,55.44
2023-05-10T06:07:45.103Z,55.44
2023-05-10T06:08:45.131Z,55.44
2023-05-10T06:09:45.307Z,55.44
2023-05-10T06:10:45.565Z,55.44
2023-05-10T06:11:45.594Z,55.35
2023-05-10T06:12:45.704Z,55.35
2023-05-10T06:13:45.848Z,55.44
2023-05-10T06:14:46.035Z,55.35
2023-05-10T06:15:46.116Z,55.44
2023-05-10T06:16:46.295Z,55.44
2023-05-10T06:17:46.450Z,55.44
2023-05-10T06:18:46.623Z,55.44
2023-05-10T06:19:46.674Z,55.35
2023-05-10T06:20:46.816Z,55.44
2023-05-10T06:21:47.213Z,55.44
2023-05-10T06:22:47.088Z,55.44
2023-05-10T06:23:47.359Z,55.35
2023-05-10T06:24:47.444Z,55.35
2023-05-10T06:25:47.510Z,55.35
2023-05-10T06:26:47.865Z,55.44
2023-05-10T06:27:51.119Z,55.44
2023-05-10T06:28:48.851Z,55.35
2023-05-10T06:29:49.210Z,55.44
2023-05-10T06:30:48.116Z,55.35
2023-05-10T06:31:48.366Z,55.44
2023-05-10T06:32:48.451Z,55.44
2023-05-10T06:33:48.530Z,55.44
2023-05-10T06:34:48.857Z,55.44
2023-05-10T06:35:49.993Z,55.35
2023-05-10T06:36:48.987Z,55.35
2023-05-10T06:37:49.136Z,55.44
2023-05-10T06:38:49.350Z,55.44
2023-05-10T06:39:50.681Z,55.44
2023-05-10T06:40:49.574Z,55.44
2023-05-10T06:41:49.880Z,55.44
2023-05-10T06:42:49.839Z,55.44
2023-05-10T06:43:49.976Z,55.35
2023-05-10T06:44:50.153Z,55.35
2023-05-10T06:45:50.265Z,55.44
2023-05-10T06:46:51.452Z,55.44
2023-05-10T06:47:50.661Z,55.44
2023-05-10T06:48:51.667Z,55.44
2023-05-10T06:49:51.036Z,55.44
2023-05-10T06:50:51.033Z,55.44
2023-05-10T06:51:51.826Z,55.44
2023-05-10T06:52:53.139Z,55.44
2023-05-10T06:53:51.353Z,55.44
2023-05-10T06:54:51.529Z,55.44
2023-05-10T06:55:52.653Z,55.44
2023-05-10T06:56:52.702Z,55.35
2023-05-10T06:57:51.934Z,55.44
2023-05-10T06:58:52.052Z,55.44
2023-05-10T06:59:52.154Z,55.44
2023-05-10T07:00:52.360Z,55.55
2023-05-10T07:01:52.455Z,55.55
2023-05-10T07:02:52.589Z,55.44
2023-05-10T07:03:52.706Z,55.44
2023-05-10T07:04:53.082Z,55.44
2023-05-10T07:05:52.934Z,55.55
2023-05-10T07:06:53.175Z,55.44
2023-05-10T07:07:53.274Z,55.44
2023-05-10T07:08:53.407Z,55.55
2023-05-10T07:09:53.558Z,55.44
2023-05-10T07:10:53.595Z,55.44
2023-05-10T07:11:53.793Z,55.55
2023-05-10T07:12:53.972Z,55.55
2023-05-10T07:13:54.012Z,55.44
2023-05-10T07:14:54.156Z,55.44
2023-05-10T07:15:54.298Z,55.55
2023-05-10T07:16:54.366Z,55.55
2023-05-10T07:17:54.676Z,55.55
2023-05-10T07:18:54.747Z,55.44
2023-05-10T07:19:54.852Z,55.44
2023-05-10T07:20:54.976Z,55.55
2023-05-10T07:21:55.115Z,55.55
2023-05-10T07:22:55.212Z,55.44
2023-05-10T07:23:55.447Z,55.55
2023-05-10T07:24:55.552Z,55.55
2023-05-10T07:25:55.622Z,55.55
2023-05-10T07:26:56.680Z,55.55
2023-05-10T07:27:55.933Z,55.44
2023-05-10T07:28:56.130Z,55.55
2023-05-10T07:29:56.302Z,55.62
2023-05-10T07:30:56.608Z,55.52
2023-05-10T07:31:58.817Z,55.52
2023-05-10T07:34:12.585Z,55.52
2023-05-10T07:35:12.607Z,55.42
2023-05-10T07:36:12.509Z,55.52
2023-05-10T07:37:12.597Z,55.52
2023-05-10T07:38:12.772Z,55.42
2023-05-10T07:39:21.201Z,55.32
2023-05-10T07:40:14.023Z,55.32
2023-05-10T07:41:13.113Z,55.22
2023-05-10T07:42:13.163Z,55.12
2023-05-10T07:43:14.072Z,55.22
2023-05-10T07:44:13.371Z,55.42
2023-05-10T07:45:13.588Z,55.42
2023-05-10T07:46:13.723Z,55.32
2023-05-10T07:47:13.783Z,55.32
2023-05-10T07:48:13.972Z,55.32
2023-05-10T07:49:14.088Z,55.22
2023-05-10T07:50:14.153Z,55.22
2023-05-10T07:51:14.358Z,55.22
2023-05-10T07:52:14.444Z,55.32
2023-05-10T07:53:15.636Z,55.32
2023-05-10T07:54:14.741Z,55.22
2023-05-10T07:55:15.158Z,55.32
2023-05-10T07:56:14.899Z,55.32
2023-05-10T07:57:15.207Z,55.22
2023-05-10T07:58:15.186Z,55.42
2023-05-10T07:59:15.334Z,55.62
2023-05-10T08:00:15.450Z,55.42
2023-05-10T08:01:15.640Z,55.32
2023-05-10T08:02:15.802Z,55.32
2023-05-10T08:03:16.269Z,55.32
2023-05-10T08:04:16.144Z,55.32
2023-05-10T08:05:16.351Z,55.42
2023-05-10T08:06:16.261Z,55.52
2023-05-10T08:07:17.164Z,55.32
2023-05-10T08:08:16.525Z,55.42
2023-05-10T08:09:16.914Z,55.42
2023-05-10T08:10:16.846Z,55.52
2023-05-10T08:11:17.967Z,55.52
2023-05-10T08:12:17.086Z,55.42
2023-05-10T08:13:17.280Z,55.62
2023-05-10T08:14:18.020Z,55.62
2023-05-10T08:15:17.765Z,55.72
2023-05-10T08:16:18.830Z,55.82
2023-05-10T08:17:19.723Z,55.72
2023-05-10T08:18:20.600Z,55.62
2023-05-10T08:19:18.841Z,55.62
2023-05-10T08:20:18.312Z,55.62
2023-05-10T08:21:18.209Z,55.72
2023-05-10T08:22:18.439Z,55.62
2023-05-10T08:23:18.488Z,55.72
2023-05-10T08:24:18.617Z,55.62
2023-05-10T08:25:19.037Z,55.62
2023-05-10T08:26:19.963Z,55.72
2023-05-10T08:27:19.032Z,55.62
2023-05-10T08:28:20.052Z,55.62
2023-05-10T08:29:19.367Z,55.62
2023-05-10T08:30:19.497Z,55.72
2023-05-10T08:31:21.506Z,56.12
2023-05-10T08:32:19.635Z,56.02
2023-05-10T08:33:19.807Z,55.82
2023-05-10T08:34:20.022Z,55.82
2023-05-10T08:35:20.065Z,55.92
2023-05-10T08:36:20.222Z,55.82
2023-05-10T08:37:20.458Z,55.92
2023-05-10T08:38:21.634Z,55.82
2023-05-10T08:39:29.796Z,55.82
2023-05-10T08:40:21.818Z,55.82
2023-05-10T08:41:21.937Z,55.82
2023-05-10T08:42:20.994Z,55.82
2023-05-10T08:43:21.304Z,55.72
2023-05-10T08:44:21.269Z,55.92
2023-05-10T08:45:21.474Z,55.92
2023-05-10T08:46:21.621Z,55.92
2023-05-10T08:47:22.486Z,55.82
2023-05-10T08:48:21.832Z,55.72
2023-05-10T08:49:21.963Z,55.82
2023-05-10T08:50:24.257Z,55.82
2023-05-10T08:51:22.325Z,55.72
2023-05-10T08:52:22.309Z,55.72
2023-05-10T08:53:22.491Z,55.62
2023-05-10T08:54:22.601Z,55.59
2023-05-10T08:55:22.695Z,55.59
2023-05-10T08:56:22.873Z,55.79
2023-05-10T08:57:23.026Z,55.59
2023-05-10T08:58:23.216Z,55.59
2023-05-10T08:59:23.504Z,55.59
2023-05-10T09:00:23.500Z,55.59
2023-05-10T09:01:23.737Z,55.59
2023-05-10T09:02:23.911Z,55.49
2023-05-10T09:03:23.905Z,55.40
2023-05-10T09:04:24.204Z,55.40
2023-05-10T09:05:24.146Z,55.49
2023-05-10T09:06:24.456Z,55.49
2023-05-10T09:07:24.430Z,55.49
2023-05-10T09:08:25.461Z,55.29
2023-05-10T09:09:24.704Z,55.40
2023-05-10T09:10:24.799Z,55.29
2023-05-10T09:11:24.975Z,55.40
2023-05-10T09:12:25.160Z,55.29
2023-05-10T09:13:25.201Z,55.40
2023-05-10T09:14:25.310Z,55.17
2023-05-10T09:15:26.457Z,55.27
2023-05-10T09:16:27.706Z,55.27
2023-05-10T09:17:26.122Z,55.27
2023-05-10T09:18:27.927Z,55.27
2023-05-10T09:19:26.945Z,55.29
2023-05-10T09:21:41.759Z,55.59
2023-05-10T09:22:41.920Z,55.47
2023-05-10T09:23:47.409Z,55.36
2023-05-10T09:24:43.215Z,55.47
2023-05-10T09:25:43.388Z,55.36
2023-05-10T09:26:42.590Z,55.36
2023-05-10T09:27:42.733Z,55.36
2023-05-10T09:28:42.917Z,55.36
2023-05-10T09:29:43.181Z,55.27
2023-05-10T09:30:44.105Z,55.36
2023-05-10T09:31:43.348Z,55.36
2023-05-10T09:32:43.413Z,55.36
2023-05-10T09:33:44.216Z,55.47
2023-05-10T09:34:46.713Z,55.27
2023-05-10T09:35:43.702Z,55.27
2023-05-10T09:36:43.752Z,55.27
2023-05-10T09:37:43.862Z,55.17
2023-05-10T09:38:43.971Z,55.27
2023-05-10T09:39:44.302Z,55.27
2023-05-10T09:40:44.349Z,55.27
2023-05-10T09:41:44.447Z,55.17
2023-05-10T09:42:44.628Z,55.47
2023-05-10T09:43:44.778Z,55.27
2023-05-10T09:44:45.380Z,55.27
2023-05-10T09:45:46.134Z,55.27
2023-05-10T09:46:45.821Z,55.27
2023-05-10T09:47:45.351Z,55.36
2023-05-10T09:48:47.051Z,55.36
2023-05-10T09:49:45.633Z,55.36
2023-05-10T09:50:45.657Z,55.47
2023-05-10T09:51:45.835Z,55.36
2023-05-10T09:52:45.973Z,55.47
2023-05-10T09:53:46.054Z,55.47
2023-05-10T09:54:46.797Z,55.36
2023-05-10T09:55:46.294Z,55.47
2023-05-10T09:56:46.596Z,55.36
2023-05-10T09:57:46.826Z,55.36
2023-05-10T09:58:46.784Z,55.57
2023-05-10T09:59:47.623Z,55.66
2023-05-10T10:00:47.767Z,55.57
2023-05-10T10:01:49.222Z,55.57
2023-05-10T10:13:24.912Z,56.29
2023-05-10T10:14:25.021Z,56.39
2023-05-10T10:15:25.205Z,56.16
2023-05-10T10:16:25.334Z,56.16
2023-05-10T10:17:25.534Z,56.16
2023-05-10T10:18:25.761Z,56.16
2023-05-10T10:19:25.801Z,55.97
2023-05-10T10:20:25.888Z,55.97
2023-05-10T10:21:26.072Z,55.87
2023-05-10T10:22:26.130Z,55.97
2023-05-10T10:23:26.321Z,55.77
2023-05-10T10:24:26.419Z,55.97
2023-05-10T10:25:26.623Z,55.77
2023-05-10T10:26:26.558Z,55.87
2023-05-10T10:27:26.775Z,55.74
2023-05-10T10:28:28.262Z,55.64
2023-05-10T10:29:27.079Z,55.64
2023-05-10T10:30:27.210Z,55.64
2023-05-10T10:31:28.074Z,55.54
2023-05-10T10:32:27.551Z,55.54
2023-05-10T10:33:28.692Z,55.64
2023-05-10T10:34:27.934Z,55.74
2023-05-10T10:35:28.498Z,55.54
2023-05-10T10:36:27.947Z,55.84
2023-05-10T10:37:28.316Z,55.54
2023-05-10T10:38:28.189Z,55.34
2023-05-10T10:39:28.377Z,55.34
2023-05-10T10:40:28.505Z,55.44
2023-05-10T10:41:28.577Z,55.34
2023-05-10T10:42:28.727Z,55.34
2023-05-10T10:43:28.852Z,55.34
2023-05-10T10:44:29.146Z,55.24
2023-05-10T10:45:29.149Z,55.24
2023-05-10T10:46:29.503Z,55.34
2023-05-10T10:47:29.503Z,55.41
2023-05-10T10:48:29.604Z,55.32
2023-05-10T10:49:29.745Z,55.11
2023-05-10T10:50:30.877Z,55.21
2023-05-10T10:51:30.093Z,55.21
2023-05-10T10:52:30.117Z,55.21
2023-05-10T10:53:30.376Z,55.11
2023-05-10T10:54:31.364Z,55.32
2023-05-10T10:55:31.485Z,55.32
2023-05-10T10:56:30.617Z,55.34
2023-05-10T10:57:30.791Z,55.24
2023-05-10T10:58:30.955Z,55.34
2023-05-10T10:59:31.130Z,55.24
2023-05-10T11:00:31.247Z,55.11
2023-05-10T11:01:31.519Z,55.11
2023-05-10T11:02:31.771Z,55.21
2023-05-10T11:03:32.651Z,55.11
2023-05-10T11:04:31.989Z,54.91
2023-05-10T11:05:32.879Z,55.11
2023-05-10T11:06:32.125Z,55.21
2023-05-10T11:07:32.218Z,55.11
2023-05-10T11:08:32.407Z,55.11
2023-05-10T11:09:32.546Z,55.11
2023-05-10T11:10:32.615Z,54.91
2023-05-10T11:11:32.757Z,55.21
2023-05-10T11:12:33.995Z,55.21
2023-05-10T11:13:34.095Z,55.41
2023-05-10T11:14:34.162Z,55.21
2023-05-10T11:15:33.523Z,55.11
2023-05-10T11:16:33.609Z,55.02
2023-05-10T11:17:33.607Z,54.82
2023-05-10T11:18:33.839Z,54.91
2023-05-10T11:19:34.775Z,54.82
2023-05-10T11:20:34.061Z,54.89
2023-05-10T11:21:34.324Z,54.79
2023-05-10T11:22:34.276Z,54.89
2023-05-10T11:23:34.405Z,54.79
2023-05-10T11:24:34.622Z,54.79
2023-05-10T11:25:34.704Z,54.69
2023-05-10T11:26:34.985Z,54.59
2023-05-10T11:27:35.013Z,54.59
2023-05-10T11:28:35.121Z,54.59
2023-05-10T11:29:35.237Z,54.59
2023-05-10T11:30:36.304Z,54.59
2023-05-10T11:31:35.570Z,54.59
2023-05-10T11:32:35.711Z,54.59
2023-05-10T11:33:35.831Z,54.49
2023-05-10T11:34:35.945Z,54.49
2023-05-10T11:35:36.059Z,54.39
2023-05-10T11:36:36.262Z,54.49
2023-05-10T11:37:36.416Z,54.49
2023-05-10T11:38:36.627Z,54.39
2023-05-10T11:39:36.716Z,54.49
2023-05-10T11:40:36.730Z,54.39
2023-05-10T11:41:36.866Z,54.39
2023-05-10T11:42:37.108Z,54.49
2023-05-10T11:43:37.147Z,54.69
2023-05-10T11:44:37.338Z,54.69
2023-05-10T11:45:37.376Z,54.69
2023-05-10T11:46:37.527Z,54.59
2023-05-10T11:47:37.750Z,54.49
2023-05-10T11:48:37.729Z,54.59
2023-05-10T11:49:37.859Z,54.59
2023-05-10T11:50:38.036Z,54.39
2023-05-10T11:51:38.149Z,54.39
2023-05-10T11:52:38.316Z,54.36
2023-05-10T11:53:38.372Z,54.36
2023-05-10T11:54:38.508Z,54.27
2023-05-10T11:55:38.670Z,54.27
2023-05-10T11:56:38.834Z,54.36
2023-05-10T11:57:39.010Z,54.46
2023-05-10T11:58:39.111Z,54.36
2023-05-10T11:59:40.639Z,54.36
2023-05-10T12:00:39.345Z,54.27
2023-05-10T12:01:39.521Z,54.16
2023-05-10T12:02:39.730Z,54.06
2023-05-10T12:03:39.932Z,54.06
2023-05-10T12:04:40.087Z,54.16
2023-05-10T12:06:58.471Z,54.16
2023-05-10T12:07:55.663Z,54.16
2023-05-10T12:08:55.796Z,54.14
2023-05-10T12:09:55.918Z,54.04
2023-05-10T12:10:56.024Z,54.04
2023-05-10T12:11:56.156Z,53.94
2023-05-10T12:12:56.290Z,53.84
2023-05-10T12:13:56.403Z,53.74
2023-05-10T12:14:56.519Z,53.74
2023-05-10T12:15:56.716Z,53.64
2023-05-10T12:16:56.933Z,53.64
2023-05-10T12:17:57.915Z,53.52
2023-05-10T12:18:57.266Z,53.64
2023-05-10T12:19:57.389Z,53.41
2023-05-10T12:20:57.451Z,53.41
2023-05-10T12:21:57.601Z,53.41
2023-05-10T12:22:59.737Z,53.31
2023-05-10T12:23:57.875Z,53.22
2023-05-10T12:24:58.745Z,53.31
2023-05-10T12:25:58.235Z,53.22
2023-05-10T12:26:58.319Z,53.22
2023-05-10T12:27:58.449Z,53.31
2023-05-10T12:28:58.596Z,53.31
2023-05-10T12:29:58.734Z,53.41
2023-05-10T12:30:58.922Z,53.31
2023-05-10T12:32:00.021Z,53.52
2023-05-10T12:32:59.121Z,53.52
2023-05-10T12:34:00.207Z,53.41
2023-05-10T12:34:59.359Z,53.31
2023-05-10T12:35:59.506Z,53.19
2023-05-10T12:36:59.644Z,52.99
2023-05-10T12:37:59.778Z,52.89
2023-05-10T12:38:59.916Z,52.89
2023-05-10T12:40:00.079Z,52.99
2023-05-10T12:41:00.352Z,52.99
2023-05-10T12:42:00.421Z,52.79
2023-05-10T12:43:00.491Z,52.59
2023-05-10T12:44:00.865Z,52.57
2023-05-10T12:45:00.789Z,52.17
2023-05-10T12:46:00.929Z,52.04
2023-05-10T12:47:01.034Z,51.95
2023-05-10T12:48:01.208Z,51.75
2023-05-10T12:49:08.652Z,51.65
2023-05-10T12:50:02.421Z,51.84
2023-05-10T12:51:02.504Z,51.62
2023-05-10T12:52:01.756Z,51.32
2023-05-10T12:53:01.886Z,51.22
2023-05-10T12:54:02.059Z,51.03
2023-05-10T12:55:02.175Z,50.93
2023-05-10T12:56:02.302Z,51.10
2023-05-10T12:57:02.411Z,51.00
2023-05-10T12:58:03.477Z,50.70
2023-05-10T12:59:02.706Z,50.48
2023-05-10T13:00:02.873Z,50.48
2023-05-10T13:01:03.059Z,50.38
2023-05-10T13:02:03.292Z,50.28
2023-05-10T13:03:03.216Z,49.86
2023-05-10T13:04:03.368Z,49.34
2023-05-10T13:05:03.551Z,49.46
2023-05-10T13:06:03.721Z,49.54
2023-05-10T13:07:03.684Z,49.24
2023-05-10T13:08:03.880Z,48.82
2023-05-10T13:09:03.992Z,48.72
2023-05-10T13:10:04.117Z,48.52
2023-05-10T13:11:04.673Z,48.52
2023-05-10T13:12:04.749Z,48.30
2023-05-10T13:13:04.491Z,47.98
2023-05-10T13:14:04.965Z,47.56
2023-05-10T13:15:04.874Z,47.46
2023-05-10T13:16:05.941Z,47.58
2023-05-10T13:17:05.209Z,47.68
2023-05-10T13:18:05.216Z,47.68
2023-05-10T13:19:05.540Z,47.46
2023-05-10T13:20:05.816Z,46.74
2023-05-10T13:21:05.515Z,46.42
2023-05-10T13:22:05.653Z,45.90
2023-05-10T13:23:05.761Z,45.59
2023-05-10T13:24:05.903Z,45.17
2023-05-10T13:25:05.998Z,44.78
2023-05-10T13:26:06.097Z,44.06
2023-05-10T13:27:06.249Z,43.74
2023-05-10T13:28:06.384Z,43.43
2023-05-10T13:29:06.501Z,42.91
2023-05-10T13:30:06.631Z,42.60
2023-05-10T13:31:06.741Z,42.50
2023-05-10T13:32:06.867Z,42.28
2023-05-10T13:33:07.056Z,41.89
2023-05-10T13:34:07.131Z,41.57
2023-05-10T13:35:07.263Z,41.38
2023-05-10T13:36:07.409Z,41.27
2023-05-10T13:37:07.503Z,41.16
2023-05-10T13:38:07.635Z,41.16
2023-05-10T13:39:07.798Z,40.96
2023-05-10T13:40:07.890Z,40.96
2023-05-10T13:41:07.996Z,40.84
2023-05-10T13:42:08.137Z,40.94
2023-05-10T13:43:08.258Z,40.74
2023-05-10T13:44:08.349Z,40.64
2023-05-10T13:45:08.491Z,40.55
2023-05-10T13:46:08.731Z,40.43
2023-05-10T13:47:08.775Z,40.23
2023-05-10T13:50:25.560Z,40.23
2023-05-10T13:51:25.662Z,40.21
2023-05-10T13:52:25.784Z,40.11
2023-05-10T13:53:25.874Z,40.11
2023-05-10T13:54:26.149Z,40.21
2023-05-10T13:55:26.102Z,40.31
2023-05-10T13:56:27.157Z,40.21
2023-05-10T13:57:26.347Z,40.33
2023-05-10T13:58:26.499Z,40.86
2023-05-10T13:59:26.637Z,41.59
2023-05-10T14:00:26.740Z,42.50
2023-05-10T14:01:26.980Z,43.23
2023-05-10T14:02:27.140Z,43.74
2023-05-10T14:03:27.215Z,43.21
2023-05-10T14:04:27.236Z,42.79
2023-05-10T14:05:27.700Z,42.47
2023-05-10T14:06:27.585Z,42.18
2023-05-10T14:07:27.696Z,42.16
2023-05-10T14:08:27.854Z,42.40
2023-05-10T14:09:27.977Z,42.68
2023-05-10T14:10:28.092Z,42.79
2023-05-10T14:11:28.214Z,43.21
2023-05-10T14:12:28.314Z,43.84
2023-05-10T14:13:28.484Z,44.65
2023-05-10T14:14:28.657Z,45.17
2023-05-10T14:15:28.722Z,45.59
2023-05-10T14:16:28.863Z,45.68
2023-05-10T14:17:28.974Z,46.01
2023-05-10T14:18:29.088Z,46.30
2023-05-10T14:19:29.180Z,46.42
2023-05-10T14:20:29.274Z,46.62
2023-05-10T14:21:29.475Z,46.18
2023-05-10T14:22:29.622Z,45.98
2023-05-10T14:23:29.879Z,46.30
2023-05-10T14:24:29.828Z,46.62
2023-05-10T14:25:29.934Z,47.04
2023-05-10T14:26:30.089Z,47.24
2023-05-10T14:27:30.219Z,47.66
2023-05-10T14:28:30.370Z,47.86
2023-05-10T14:29:30.461Z,48.18
2023-05-10T14:30:30.600Z,48.27
2023-05-10T14:31:30.722Z,48.47
2023-05-10T14:32:30.875Z,48.69
2023-05-10T14:33:30.998Z,48.99
2023-05-10T14:34:31.058Z,49.09
2023-05-10T14:35:31.175Z,49.41
2023-05-10T14:36:31.304Z,49.32
2023-05-10T14:37:31.393Z,49.41
2023-05-10T14:38:31.639Z,49.71
2023-05-10T14:39:31.706Z,49.81
2023-05-10T14:40:31.836Z,50.03
2023-05-10T14:41:31.926Z,50.23
2023-05-10T14:42:32.039Z,50.13
2023-05-10T14:43:32.222Z,50.13
2023-05-10T14:44:32.333Z,50.03
2023-05-10T14:45:32.498Z,50.13
2023-05-10T14:46:32.653Z,50.33
2023-05-10T14:47:32.722Z,50.33
2023-05-10T14:48:32.890Z,50.23
2023-05-10T14:49:32.978Z,50.33
2023-05-10T14:50:37.031Z,50.73
2023-05-10T14:51:33.256Z,50.56
2023-05-10T14:52:34.343Z,50.65
2023-05-10T14:53:33.511Z,50.75
2023-05-10T14:54:33.607Z,50.75
2023-05-10T14:55:33.801Z,51.05
2023-05-10T14:56:33.928Z,50.85
2023-05-10T14:57:34.016Z,51.15
2023-05-10T14:58:34.477Z,51.05
2023-05-10T14:59:34.278Z,51.15
2023-05-10T15:00:34.395Z,51.28
2023-05-10T15:01:34.541Z,51.37
2023-05-10T15:02:36.647Z,51.37
2023-05-10T15:03:34.946Z,51.37
2023-05-10T15:04:34.889Z,51.47
2023-05-10T15:05:35.074Z,51.67
2023-05-10T15:06:35.153Z,51.77
2023-05-10T15:07:35.271Z,51.67
2023-05-10T15:08:35.404Z,51.57
2023-05-10T15:09:35.551Z,51.67
2023-05-10T15:10:35.724Z,51.77
2023-05-10T15:11:35.801Z,51.77
2023-05-10T15:12:35.919Z,51.77
2023-05-10T15:13:36.093Z,51.77
2023-05-10T15:14:36.178Z,51.77
2023-05-10T15:15:36.327Z,52.00
2023-05-10T15:16:36.630Z,52.09
2023-05-10T15:17:36.545Z,51.89
2023-05-10T15:18:36.694Z,52.00
2023-05-10T15:19:36.776Z,52.19
2023-05-10T15:20:36.914Z,52.19
2023-05-10T15:21:37.021Z,52.39
2023-05-10T15:22:37.228Z,52.39
2023-05-10T15:23:37.316Z,52.39
2023-05-10T15:24:37.524Z,52.49
2023-05-10T15:25:37.668Z,52.39
2023-05-10T15:26:37.755Z,52.72
2023-05-10T15:27:37.924Z,52.81
2023-05-10T15:28:38.045Z,52.51
2023-05-10T15:29:38.194Z,52.72
2023-05-10T15:30:38.288Z,52.81
2023-05-10T15:31:38.457Z,52.81
2023-05-10T15:32:38.564Z,52.91
2023-05-10T15:33:38.661Z,52.91
2023-05-10T15:34:38.829Z,52.91
2023-05-10T15:35:38.980Z,52.81
2023-05-10T15:36:39.159Z,52.91
2023-05-10T15:37:39.295Z,53.11
2023-05-10T15:38:39.395Z,53.04
2023-05-10T15:39:39.537Z,53.14
2023-05-10T15:40:39.731Z,53.34
2023-05-10T15:41:39.851Z,53.24
2023-05-10T15:42:39.996Z,53.34
2023-05-10T15:43:41.060Z,53.24
2023-05-10T15:44:40.288Z,53.34
2023-05-10T15:45:40.358Z,53.34
2023-05-10T15:46:40.601Z,53.44
2023-05-10T15:47:40.830Z,53.34
2023-05-10T15:48:40.864Z,53.44
2023-05-10T15:49:40.999Z,53.44
2023-05-10T15:50:41.119Z,53.44
2023-05-10T15:51:41.237Z,53.53
2023-05-10T15:52:41.428Z,53.53
2023-05-10T15:53:52.696Z,53.64
2023-05-10T15:54:42.703Z,53.64
2023-05-10T15:55:41.833Z,53.64
2023-05-10T15:56:41.978Z,53.76
2023-05-10T15:57:42.148Z,53.56
2023-05-10T15:58:42.210Z,53.56
2023-05-10T15:59:42.316Z,53.66
2023-05-10T16:00:42.522Z,53.76
2023-05-10T16:12:39.747Z,54.68
2023-05-10T16:13:40.799Z,54.68
2023-05-10T16:14:40.020Z,54.81
2023-05-10T16:15:41.083Z,54.81
2023-05-10T16:16:40.353Z,55.01
2023-05-10T16:17:40.541Z,54.91
2023-05-10T16:18:40.629Z,54.81
2023-05-10T16:19:40.658Z,54.81
2023-05-10T16:20:40.832Z,54.91
2023-05-10T16:21:40.942Z,54.81
2023-05-10T16:22:41.095Z,54.81
2023-05-10T16:23:41.190Z,54.81
2023-05-10T16:24:41.296Z,54.98
2023-05-10T16:25:41.478Z,55.01
2023-05-10T16:26:42.549Z,54.91
2023-05-10T16:27:41.774Z,54.71
2023-05-10T16:28:42.831Z,54.71
2023-05-10T16:29:42.068Z,54.68
2023-05-10T16:30:42.343Z,54.81
2023-05-10T16:31:42.335Z,55.01
2023-05-10T16:32:43.510Z,54.91
2023-05-10T16:33:42.640Z,54.91
2023-05-10T16:34:42.769Z,54.91
2023-05-10T16:35:42.891Z,54.91
2023-05-10T16:36:43.050Z,55.01
2023-05-10T16:37:44.154Z,54.81
2023-05-10T16:38:43.269Z,55.01
2023-05-10T16:39:43.492Z,55.21
2023-05-10T16:40:43.588Z,55.11
2023-05-10T16:41:43.725Z,54.91
2023-05-10T16:42:43.915Z,55.01
2023-05-10T16:43:43.991Z,54.91
2023-05-10T16:44:45.070Z,55.11
2023-05-10T16:45:44.313Z,55.21
2023-05-10T16:46:44.662Z,55.01
2023-05-10T16:47:44.639Z,55.11
2023-05-10T16:48:44.671Z,55.21
2023-05-10T16:49:44.827Z,55.11
2023-05-10T16:50:44.919Z,55.01
2023-05-10T16:51:45.114Z,55.11
2023-05-10T16:52:45.285Z,55.21
2023-05-10T16:53:45.416Z,55.21
2023-05-10T16:54:45.594Z,55.21
2023-05-10T16:55:45.716Z,55.31
2023-05-10T16:56:45.815Z,55.11
2023-05-10T16:57:45.935Z,55.11
2023-05-10T16:58:46.073Z,55.13
2023-05-10T16:59:46.166Z,55.13
2023-05-10T17:00:46.283Z,55.33
2023-05-10T17:01:46.429Z,55.43
2023-05-10T17:02:46.577Z,55.33
2023-05-10T17:03:47.047Z,55.24
2023-05-10T17:04:46.852Z,55.33
2023-05-10T17:05:46.949Z,55.33
2023-05-10T17:06:47.062Z,55.43
2023-05-10T17:07:47.172Z,55.43
2023-05-10T17:08:47.352Z,55.43
2023-05-10T17:09:47.512Z,55.43
2023-05-10T17:10:47.656Z,55.43
2023-05-10T17:11:47.799Z,55.43
2023-05-10T17:12:47.904Z,55.43
2023-05-10T17:13:48.016Z,55.43
2023-05-10T17:14:48.152Z,55.43
2023-05-10T17:15:48.503Z,55.54
2023-05-10T17:16:48.392Z,55.54
2023-05-10T17:17:48.582Z,55.43
2023-05-10T17:18:48.708Z,55.54
2023-05-10T17:19:48.791Z,55.54
2023-05-10T17:20:48.944Z,55.66
2023-05-10T17:21:49.088Z,55.66
2023-05-10T17:22:49.235Z,55.66